sensor_id;sensor_type;location;lat;lon;timestamp;pressure;altitude;pressure_sealevel;temperature;humidity
69247;BME280;56358;56.328;43.992;2022-11-06T00:01:09;101775.28;;;-0.29;64.26
69247;BME280;56358;56.328;43.992;2022-11-06T00:03:10;101777.94;;;-0.32;63.74
69247;BME280;56358;56.328;43.992;2022-11-06T00:05:11;101781.47;;;-0.34;63.97
69247;BME280;56358;56.328;43.992;2022-11-06T00:07:31;101789.41;;;-0.37;63.82
69247;BME280;56358;56.328;43.992;2022-11-06T00:09:33;101780.72;;;-0.45;63.92
69247;BME280;56358;56.328;43.992;2022-11-06T00:11:34;101777.22;;;-0.44;64.04
69247;BME280;56358;56.328;43.992;2022-11-06T00:13:34;101796.47;;;-0.39;64.11
69247;BME280;56358;56.328;43.992;2022-11-06T00:15:35;101778.13;;;-0.46;64.45
69247;BME280;56358;56.328;43.992;2022-11-06T00:17:36;101786.78;;;-0.37;64.77
69247;BME280;56358;56.328;43.992;2022-11-06T00:19:36;101787.66;;;-0.38;64.68
69247;BME280;56358;56.328;43.992;2022-11-06T00:21:37;101790.31;;;-0.36;64.67
69247;BME280;56358;56.328;43.992;2022-11-06T00:23:39;101780.63;;;-0.36;64.85
69247;BME280;56358;56.328;43.992;2022-11-06T00:25:42;101778.94;;;-0.44;65.16
69247;BME280;56358;56.328;43.992;2022-11-06T00:27:43;101774.72;;;-0.59;65.21
69247;BME280;56358;56.328;43.992;2022-11-06T00:29:44;101778.97;;;-0.43;65.41
69247;BME280;56358;56.328;43.992;2022-11-06T00:31:44;101784.22;;;-0.43;65.46
69247;BME280;56358;56.328;43.992;2022-11-06T00:33:45;101785.16;;;-0.50;65.56
69247;BME280;56358;56.328;43.992;2022-11-06T00:35:46;101777.25;;;-0.50;65.77
69247;BME280;56358;56.328;43.992;2022-11-06T00:37:47;101768.53;;;-0.55;66.11
69247;BME280;56358;56.328;43.992;2022-11-06T00:39:47;101769.44;;;-0.55;66.30
69247;BME280;56358;56.328;43.992;2022-11-06T00:41:48;101774.78;;;-0.62;66.66
69247;BME280;56358;56.328;43.992;2022-11-06T00:43:51;101771.28;;;-0.66;66.83
69247;BME280;56358;56.328;43.992;2022-11-06T00:45:51;101766.97;;;-0.72;67.25
69247;BME280;56358;56.328;43.992;2022-11-06T00:47:52;101786.19;;;-0.63;67.49
69247;BME280;56358;56.328;43.992;2022-11-06T00:49:53;101703.22;;;-1.05;67.56
69247;BME280;56358;56.328;43.992;2022-11-06T00:51:53;101650.00;;;-1.33;67.55
69247;BME280;56358;56.328;43.992;2022-11-06T00:53:56;101781.72;;;-0.57;67.52
69247;BME280;56358;56.328;43.992;2022-11-06T00:56:11;101782.69;;;-0.62;67.83
69247;BME280;56358;56.328;43.992;2022-11-06T00:58:12;101778.25;;;-0.59;67.87
69247;BME280;56358;56.328;43.992;2022-11-06T01:00:13;101767.84;;;-0.70;67.80
69247;BME280;56358;56.328;43.992;2022-11-06T01:02:14;101775.66;;;-0.65;67.78
69247;BME280;56358;56.328;43.992;2022-11-06T01:04:19;101772.22;;;-0.70;67.95
69247;BME280;56358;56.328;43.992;2022-11-06T01:06:22;101784.47;;;-0.68;67.99
69247;BME280;56358;56.328;43.992;2022-11-06T01:08:23;101786.25;;;-0.68;67.98
69247;BME280;56358;56.328;43.992;2022-11-06T01:10:24;101775.66;;;-0.65;68.13
69247;BME280;56358;56.328;43.992;2022-11-06T01:12:24;101775.63;;;-0.62;68.00
69247;BME280;56358;56.328;43.992;2022-11-06T01:14:25;101764.31;;;-0.70;67.65
69247;BME280;56358;56.328;43.992;2022-11-06T01:16:27;101709.31;;;-0.99;67.45
69247;BME280;56358;56.328;43.992;2022-11-06T01:18:28;101770.38;;;-0.62;67.44
69247;BME280;56358;56.328;43.992;2022-11-06T01:20:29;101697.94;;;-1.05;67.70
69247;BME280;56358;56.328;43.992;2022-11-06T01:22:29;101773.03;;;-0.63;67.67
69247;BME280;56358;56.328;43.992;2022-11-06T01:24:30;101761.63;;;-0.64;67.86
69247;BME280;56358;56.328;43.992;2022-11-06T01:26:32;101775.66;;;-0.63;67.84
69247;BME280;56358;56.328;43.992;2022-11-06T01:28:33;101770.44;;;-0.66;67.79
69247;BME280;56358;56.328;43.992;2022-11-06T01:30:37;101771.28;;;-0.63;67.81
69247;BME280;56358;56.328;43.992;2022-11-06T01:32:37;101780.91;;;-0.62;67.80
69247;BME280;56358;56.328;43.992;2022-11-06T01:34:38;101775.66;;;-0.65;67.77
69247;BME280;56358;56.328;43.992;2022-11-06T01:36:39;101780.09;;;-0.65;67.82
69247;BME280;56358;56.328;43.992;2022-11-06T01:38:44;101781.81;;;-0.64;67.58
69247;BME280;56358;56.328;43.992;2022-11-06T01:40:46;101719.94;;;-1.09;67.93
69247;BME280;56358;56.328;43.992;2022-11-06T01:42:47;101791.53;;;-0.70;67.81
69247;BME280;56358;56.328;43.992;2022-11-06T01:45:20;101720.75;;;-1.04;68.04
69247;BME280;56358;56.328;43.992;2022-11-06T01:47:26;101713.03;;;-1.21;68.09
69247;BME280;56358;56.328;43.992;2022-11-06T01:49:33;101795.13;;;-0.78;68.23
69247;BME280;56358;56.328;43.992;2022-11-06T01:51:44;101788.19;;;-0.89;68.35
69247;BME280;56358;56.328;43.992;2022-11-06T01:53:46;101796.94;;;-0.85;68.67
69247;BME280;56358;56.328;43.992;2022-11-06T01:55:51;101789.97;;;-0.89;68.75
69247;BME280;56358;56.328;43.992;2022-11-06T01:57:53;101785.53;;;-0.87;68.84
69247;BME280;56358;56.328;43.992;2022-11-06T01:59:54;101729.72;;;-1.22;69.03
69247;BME280;56358;56.328;43.992;2022-11-06T02:01:55;101748.88;;;-1.09;69.03
69247;BME280;56358;56.328;43.992;2022-11-06T02:04:13;101716.59;;;-1.28;69.06
69247;BME280;56358;56.328;43.992;2022-11-06T02:06:15;101734.94;;;-1.17;69.23
69247;BME280;56358;56.328;43.992;2022-11-06T02:08:18;101787.28;;;-0.83;69.20
69247;BME280;56358;56.328;43.992;2022-11-06T02:10:20;101806.56;;;-0.81;69.38
69247;BME280;56358;56.328;43.992;2022-11-06T02:20:25;101811.88;;;-0.89;69.81
69247;BME280;56358;56.328;43.992;2022-11-06T02:28:52;101805.69;;;-0.85;70.26
69247;BME280;56358;56.328;43.992;2022-11-06T02:30:57;101805.75;;;-0.88;70.24
69247;BME280;56358;56.328;43.992;2022-11-06T02:33:04;101805.72;;;-0.83;70.47
69247;BME280;56358;56.328;43.992;2022-11-06T02:37:54;101775.91;;;-0.88;69.88
69247;BME280;56358;56.328;43.992;2022-11-06T02:39:57;101796.00;;;-0.79;69.83
69247;BME280;56358;56.328;43.992;2022-11-06T02:42:01;101803.03;;;-0.80;69.96
69247;BME280;56358;56.328;43.992;2022-11-06T02:44:06;101756.91;;;-1.21;69.65
69247;BME280;56358;56.328;43.992;2022-11-06T02:46:12;101802.16;;;-0.80;69.93
69247;BME280;56358;56.328;43.992;2022-11-06T02:48:18;101813.63;;;-0.86;70.12
69247;BME280;56358;56.328;43.992;2022-11-06T02:50:25;101812.78;;;-0.88;70.18
69247;BME280;56358;56.328;43.992;2022-11-06T02:52:35;101803.94;;;-0.82;70.29
69247;BME280;56358;56.328;43.992;2022-11-06T02:54:40;101797.00;;;-0.93;70.34
69247;BME280;56358;56.328;43.992;2022-11-06T02:56:44;101810.97;;;-0.81;70.31
69247;BME280;56358;56.328;43.992;2022-11-06T02:59:00;101814.50;;;-0.89;70.08
69247;BME280;56358;56.328;43.992;2022-11-06T03:01:06;101810.97;;;-0.86;70.22
69247;BME280;56358;56.328;43.992;2022-11-06T03:05:35;101843.47;;;-0.87;70.31
69247;BME280;56358;56.328;43.992;2022-11-06T03:07:44;101811.88;;;-0.87;70.32
69247;BME280;56358;56.328;43.992;2022-11-06T03:09:49;101824.22;;;-0.92;70.75
69247;BME280;56358;56.328;43.992;2022-11-06T03:12:01;101755.94;;;-1.14;70.40
69247;BME280;56358;56.328;43.992;2022-11-06T03:14:21;101804.78;;;-0.80;70.54
69247;BME280;56358;56.328;43.992;2022-11-06T03:16:32;101752.44;;;-1.13;70.43
69247;BME280;56358;56.328;43.992;2022-11-06T03:18:56;101804.81;;;-0.83;70.24
69247;BME280;56358;56.328;43.992;2022-11-06T03:21:18;101824.06;;;-0.77;70.28
69247;BME280;56358;56.328;43.992;2022-11-06T03:23:34;101796.06;;;-0.87;70.47
69247;BME280;56358;56.328;43.992;2022-11-06T03:25:43;101831.06;;;-0.74;70.32
69247;BME280;56358;56.328;43.992;2022-11-06T03:30:05;101826.69;;;-0.75;70.56
69247;BME280;56358;56.328;43.992;2022-11-06T03:32:23;101809.22;;;-0.84;70.54
69247;BME280;56358;56.328;43.992;2022-11-06T03:34:38;101817.94;;;-0.77;70.28
69247;BME280;56358;56.328;43.992;2022-11-06T03:36:48;101821.47;;;-0.80;70.09
69247;BME280;56358;56.328;43.992;2022-11-06T03:38:56;101739.41;;;-1.27;70.03
69247;BME280;56358;56.328;43.992;2022-11-06T03:41:05;101804.09;;;-0.99;70.33
69247;BME280;56358;56.328;43.992;2022-11-06T03:43:09;101768.38;;;-1.31;70.62
69247;BME280;56358;56.328;43.992;2022-11-06T03:45:15;101827.78;;;-1.01;70.72
69247;BME280;56358;56.328;43.992;2022-11-06T03:47:22;101816.47;;;-1.11;71.01
69247;BME280;56358;56.328;43.992;2022-11-06T03:49:30;101833.09;;;-1.07;70.86
69247;BME280;56358;56.328;43.992;2022-11-06T03:51:40;101752.75;;;-1.50;70.88
69247;BME280;56358;56.328;43.992;2022-11-06T03:54:13;101824.34;;;-1.09;70.99
69247;BME280;56358;56.328;43.992;2022-11-06T03:56:24;101801.66;;;-1.24;71.02
69247;BME280;56358;56.328;43.992;2022-11-06T03:58:32;101808.63;;;-1.19;70.77
69247;BME280;56358;56.328;43.992;2022-11-06T04:00:35;101834.91;;;-1.12;70.79
69247;BME280;56358;56.328;43.992;2022-11-06T04:02:41;101814.78;;;-1.21;70.80
69247;BME280;56358;56.328;43.992;2022-11-06T04:04:51;101835.75;;;-1.06;70.88
69247;BME280;56358;56.328;43.992;2022-11-06T04:07:03;101765.03;;;-1.54;70.81
69247;BME280;56358;56.328;43.992;2022-11-06T04:09:06;101848.06;;;-1.11;71.22
69247;BME280;56358;56.328;43.992;2022-11-06T04:11:29;101806.06;;;-1.26;70.94
69247;BME280;56358;56.328;43.992;2022-11-06T04:13:51;101838.41;;;-1.12;71.03
69247;BME280;56358;56.328;43.992;2022-11-06T04:15:57;101779.03;;;-1.52;70.91
69247;BME280;56358;56.328;43.992;2022-11-06T04:17:57;101846.34;;;-1.15;71.18
69247;BME280;56358;56.328;43.992;2022-11-06T04:20:01;101835.81;;;-1.18;71.12
69247;BME280;56358;56.328;43.992;2022-11-06T04:29:42;101844.44;;;-1.01;71.10
69247;BME280;56358;56.328;43.992;2022-11-06T04:38:14;101843.63;;;-1.04;70.86
69247;BME280;56358;56.328;43.992;2022-11-06T04:40:40;101759.88;;;-1.66;70.79
69247;BME280;56358;56.328;43.992;2022-11-06T04:42:46;101855.97;;;-1.15;71.11
69247;BME280;56358;56.328;43.992;2022-11-06T04:44:53;101844.66;;;-1.27;71.08
69247;BME280;56358;56.328;43.992;2022-11-06T04:46:58;101838.56;;;-1.33;71.28
69247;BME280;56358;56.328;43.992;2022-11-06T04:49:02;101866.56;;;-1.25;71.33
69247;BME280;56358;56.328;43.992;2022-11-06T04:51:07;101857.78;;;-1.24;71.66
69247;BME280;56358;56.328;43.992;2022-11-06T04:53:10;101858.66;;;-1.20;71.52
69247;BME280;56358;56.328;43.992;2022-11-06T04:55:11;101807.97;;;-1.48;71.59
69247;BME280;56358;56.328;43.992;2022-11-06T04:57:13;101847.28;;;-1.25;71.60
69247;BME280;56358;56.328;43.992;2022-11-06T04:59:15;101849.00;;;-1.21;71.56
69247;BME280;56358;56.328;43.992;2022-11-06T05:01:16;101870.03;;;-1.16;71.38
69247;BME280;56358;56.328;43.992;2022-11-06T05:03:17;101808.03;;;-1.58;71.31
69247;BME280;56358;56.328;43.992;2022-11-06T05:05:18;101867.44;;;-1.24;71.61
69247;BME280;56358;56.328;43.992;2022-11-06T05:07:18;101857.84;;;-1.28;71.82
69247;BME280;56358;56.328;43.992;2022-11-06T05:09:19;101731.19;;;-2.06;71.68
69247;BME280;56358;56.328;43.992;2022-11-06T05:11:19;101870.16;;;-1.35;71.89
69247;BME280;56358;56.328;43.992;2022-11-06T05:13:20;101795.84;;;-1.71;72.39
69247;BME280;56358;56.328;43.992;2022-11-06T05:15:21;101870.06;;;-1.23;71.98
69247;BME280;56358;56.328;43.992;2022-11-06T05:17:21;101867.38;;;-1.18;72.18
69247;BME280;56358;56.328;43.992;2022-11-06T05:19:22;101874.41;;;-1.17;71.82
69247;BME280;56358;56.328;43.992;2022-11-06T05:21:23;101799.25;;;-1.58;71.88
69247;BME280;56358;56.328;43.992;2022-11-06T05:23:42;101872.63;;;-1.13;71.72
69247;BME280;56358;56.328;43.992;2022-11-06T05:25:42;101875.25;;;-1.10;72.11
69247;BME280;56358;56.328;43.992;2022-11-06T05:27:43;101888.38;;;-1.09;71.86
69247;BME280;56358;56.328;43.992;2022-11-06T05:29:44;101876.13;;;-1.08;72.13
69247;BME280;56358;56.328;43.992;2022-11-06T05:31:44;101889.25;;;-1.07;72.01
69247;BME280;56358;56.328;43.992;2022-11-06T05:33:45;101879.63;;;-1.14;71.74
69247;BME280;56358;56.328;43.992;2022-11-06T05:35:46;101874.34;;;-1.03;71.67
69247;BME280;56358;56.328;43.992;2022-11-06T05:37:46;101878.69;;;-0.99;71.52
69247;BME280;56358;56.328;43.992;2022-11-06T05:39:47;101866.47;;;-1.09;71.27
69247;BME280;56358;56.328;43.992;2022-11-06T05:41:48;101880.50;;;-1.10;71.59
69247;BME280;56358;56.328;43.992;2022-11-06T05:43:48;101883.13;;;-1.06;71.29
69247;BME280;56358;56.328;43.992;2022-11-06T05:45:49;101881.41;;;-1.10;71.00
69247;BME280;56358;56.328;43.992;2022-11-06T05:47:50;101888.47;;;-1.16;71.46
69247;BME280;56358;56.328;43.992;2022-11-06T05:49:50;101882.34;;;-1.20;71.52
69247;BME280;56358;56.328;43.992;2022-11-06T05:51:51;101887.59;;;-1.25;71.79
69247;BME280;56358;56.328;43.992;2022-11-06T05:53:52;101812.47;;;-1.71;71.72
69247;BME280;56358;56.328;43.992;2022-11-06T05:55:52;101895.50;;;-1.26;71.80
69247;BME280;56358;56.328;43.992;2022-11-06T05:57:53;101741.69;;;-2.08;71.84
69247;BME280;56358;56.328;43.992;2022-11-06T05:59:53;101879.75;;;-1.28;72.07
69247;BME280;56358;56.328;43.992;2022-11-06T06:01:55;101852.63;;;-1.39;72.07
69247;BME280;56358;56.328;43.992;2022-11-06T06:03:55;101872.72;;;-1.29;72.03
69247;BME280;56358;56.328;43.992;2022-11-06T06:05:56;101815.06;;;-1.61;71.64
69247;BME280;56358;56.328;43.992;2022-11-06T06:07:56;101877.94;;;-1.20;71.62
69247;BME280;56358;56.328;43.992;2022-11-06T06:09:57;101872.66;;;-1.16;71.62
69247;BME280;56358;56.328;43.992;2022-11-06T06:11:58;101882.31;;;-1.19;71.68
69247;BME280;56358;56.328;43.992;2022-11-06T06:13:59;101814.13;;;-1.54;71.84
69247;BME280;56358;56.328;43.992;2022-11-06T06:16:00;101856.91;;;-1.27;71.87
69247;BME280;56358;56.328;43.992;2022-11-06T06:18:01;101850.81;;;-1.34;71.74
69247;BME280;56358;56.328;43.992;2022-11-06T06:20:02;101876.19;;;-1.22;71.81
69247;BME280;56358;56.328;43.992;2022-11-06T06:22:03;101854.34;;;-1.32;71.51
69247;BME280;56358;56.328;43.992;2022-11-06T06:24:04;101878.00;;;-1.29;71.86
69247;BME280;56358;56.328;43.992;2022-11-06T06:26:05;101863.09;;;-1.31;72.04
69247;BME280;56358;56.328;43.992;2022-11-06T06:28:06;101865.72;;;-1.33;72.09
69247;BME280;56358;56.328;43.992;2022-11-06T06:30:07;101885.03;;;-1.31;72.05
69247;BME280;56358;56.328;43.992;2022-11-06T06:32:08;101859.59;;;-1.30;72.09
69247;BME280;56358;56.328;43.992;2022-11-06T06:34:09;101863.06;;;-1.27;72.03
69247;BME280;56358;56.328;43.992;2022-11-06T06:36:10;101872.75;;;-1.30;71.89
69247;BME280;56358;56.328;43.992;2022-11-06T06:38:10;101842.09;;;-1.38;71.97
69247;BME280;56358;56.328;43.992;2022-11-06T06:40:11;101871.81;;;-1.25;71.73
69247;BME280;56358;56.328;43.992;2022-11-06T06:42:12;101865.66;;;-1.22;71.63
69247;BME280;56358;56.328;43.992;2022-11-06T06:44:13;101871.84;;;-1.23;71.54
69247;BME280;56358;56.328;43.992;2022-11-06T06:46:14;101845.59;;;-1.32;71.62
69247;BME280;56358;56.328;43.992;2022-11-06T06:48:15;101870.03;;;-1.15;71.67
69247;BME280;56358;56.328;43.992;2022-11-06T06:50:16;101866.56;;;-1.25;71.36
69247;BME280;56358;56.328;43.992;2022-11-06T06:52:16;101855.16;;;-1.25;71.15
69247;BME280;56358;56.328;43.992;2022-11-06T06:54:17;101861.31;;;-1.26;71.20
69247;BME280;56358;56.328;43.992;2022-11-06T06:56:18;101873.56;;;-1.22;71.52
69247;BME280;56358;56.328;43.992;2022-11-06T06:58:19;101880.53;;;-1.18;71.45
69247;BME280;56358;56.328;43.992;2022-11-06T07:00:20;101863.03;;;-1.24;71.20
69247;BME280;56358;56.328;43.992;2022-11-06T07:02:20;101880.56;;;-1.20;71.38
69247;BME280;56358;56.328;43.992;2022-11-06T07:04:21;101857.84;;;-1.30;71.29
69247;BME280;56358;56.328;43.992;2022-11-06T07:06:21;101779.22;;;-1.81;71.22
69247;BME280;56358;56.328;43.992;2022-11-06T07:08:22;101867.50;;;-1.32;71.53
69247;BME280;56358;56.328;43.992;2022-11-06T07:10:23;101868.34;;;-1.28;71.78
69247;BME280;56358;56.328;43.992;2022-11-06T07:12:23;101871.84;;;-1.23;71.71
69247;BME280;56358;56.328;43.992;2022-11-06T07:14:24;101876.19;;;-1.17;71.68
69247;BME280;56358;56.328;43.992;2022-11-06T07:16:25;101870.09;;;-1.24;71.59
69247;BME280;56358;56.328;43.992;2022-11-06T07:18:26;101808.94;;;-1.65;71.04
69247;BME280;56358;56.328;43.992;2022-11-06T07:20:27;101880.56;;;-1.16;71.22
69247;BME280;56358;56.328;43.992;2022-11-06T07:22:28;101872.72;;;-1.26;71.62
69247;BME280;56358;56.328;43.992;2022-11-06T07:24:29;101879.69;;;-1.20;71.23
69247;BME280;56358;56.328;43.992;2022-11-06T07:26:30;101868.38;;;-1.30;71.20
69247;BME280;56358;56.328;43.992;2022-11-06T07:28:31;101883.25;;;-1.27;71.45
69247;BME280;56358;56.328;43.992;2022-11-06T07:30:33;101862.25;;;-1.35;71.44
69247;BME280;56358;56.328;43.992;2022-11-06T07:32:34;101884.13;;;-1.25;71.41
69247;BME280;56358;56.328;43.992;2022-11-06T07:34:35;101875.34;;;-1.29;71.30
69247;BME280;56358;56.328;43.992;2022-11-06T07:36:38;101883.25;;;-1.29;71.22
69247;BME280;56358;56.328;43.992;2022-11-06T07:38:41;101891.16;;;-1.29;70.91
69247;BME280;56358;56.328;43.992;2022-11-06T07:40:42;101885.88;;;-1.26;71.04
69247;BME280;56358;56.328;43.992;2022-11-06T07:42:42;101873.66;;;-1.36;71.01
69247;BME280;56358;56.328;43.992;2022-11-06T07:44:43;101886.75;;;-1.27;71.05
69247;BME280;56358;56.328;43.992;2022-11-06T07:46:44;101891.16;;;-1.26;71.25
69247;BME280;56358;56.328;43.992;2022-11-06T07:48:44;101884.06;;;-1.21;71.17
69247;BME280;56358;56.328;43.992;2022-11-06T07:50:45;101864.84;;;-1.32;71.23
69247;BME280;56358;56.328;43.992;2022-11-06T07:52:45;101884.91;;;-1.11;71.12
69247;BME280;56358;56.328;43.992;2022-11-06T07:54:46;101888.38;;;-1.07;71.06
69247;BME280;56358;56.328;43.992;2022-11-06T07:56:47;101884.00;;;-1.08;71.04
69247;BME280;56358;56.328;43.992;2022-11-06T07:58:48;101792.22;;;-1.55;70.92
69247;BME280;56358;56.328;43.992;2022-11-06T08:00:50;101841.09;;;-1.16;70.87
69247;BME280;56358;56.328;43.992;2022-11-06T08:02:51;101702.25;;;-2.03;70.46
69247;BME280;56358;56.328;43.992;2022-11-06T08:04:52;101884.81;;;-0.98;70.33
69247;BME280;56358;56.328;43.992;2022-11-06T08:06:53;101893.59;;;-0.96;70.61
69247;BME280;56358;56.328;43.992;2022-11-06T08:08:53;101882.22;;;-1.02;70.63
69247;BME280;56358;56.328;43.992;2022-11-06T08:10:54;101833.34;;;-1.43;70.70
69247;BME280;56358;56.328;43.992;2022-11-06T08:12:55;101889.22;;;-1.04;70.80
69247;BME280;56358;56.328;43.992;2022-11-06T08:14:56;101859.47;;;-1.12;70.67
69247;BME280;56358;56.328;43.992;2022-11-06T08:16:56;101871.69;;;-1.06;70.69
69247;BME280;56358;56.328;43.992;2022-11-06T08:18:58;101876.94;;;-1.00;70.75
69247;BME280;56358;56.328;43.992;2022-11-06T08:20:58;101876.88;;;-0.94;70.54
69247;BME280;56358;56.328;43.992;2022-11-06T08:23:00;101882.19;;;-1.00;70.50
69247;BME280;56358;56.328;43.992;2022-11-06T08:25:00;101883.94;;;-1.01;70.49
69247;BME280;56358;56.328;43.992;2022-11-06T08:27:01;101880.41;;;-0.98;70.34
69247;BME280;56358;56.328;43.992;2022-11-06T08:29:02;101876.91;;;-0.97;70.30
69247;BME280;56358;56.328;43.992;2022-11-06T08:31:04;101883.03;;;-0.93;70.08
69247;BME280;56358;56.328;43.992;2022-11-06T08:33:06;101857.59;;;-0.97;70.35
69247;BME280;56358;56.328;43.992;2022-11-06T08:35:07;101874.19;;;-0.88;70.17
69247;BME280;56358;56.328;43.992;2022-11-06T08:37:09;101877.63;;;-0.76;70.01
69247;BME280;56358;56.328;43.992;2022-11-06T08:39:13;101840.03;;;-0.95;70.03
69247;BME280;56358;56.328;43.992;2022-11-06T08:41:14;101876.72;;;-0.75;70.21
69247;BME280;56358;56.328;43.992;2022-11-06T08:43:14;101853.09;;;-0.85;70.40
69247;BME280;56358;56.328;43.992;2022-11-06T08:45:15;101860.91;;;-0.75;70.26
69247;BME280;56358;56.328;43.992;2022-11-06T08:47:16;101870.47;;;-0.62;70.47
69247;BME280;56358;56.328;43.992;2022-11-06T08:49:16;101870.41;;;-0.54;70.04
69247;BME280;56358;56.328;43.992;2022-11-06T08:51:17;101868.66;;;-0.55;69.68
69247;BME280;56358;56.328;43.992;2022-11-06T08:53:18;101776.94;;;-1.06;69.56
69247;BME280;56358;56.328;43.992;2022-11-06T08:55:19;101867.75;;;-0.54;69.11
69247;BME280;56358;56.328;43.992;2022-11-06T08:57:20;101873.91;;;-0.55;69.25
69247;BME280;56358;56.328;43.992;2022-11-06T08:59:20;101850.31;;;-0.63;69.07
69247;BME280;56358;56.328;43.992;2022-11-06T09:01:21;101865.19;;;-0.59;68.99
69247;BME280;56358;56.328;43.992;2022-11-06T09:03:23;101873.09;;;-0.62;69.26
69247;BME280;56358;56.328;43.992;2022-11-06T09:05:24;101874.94;;;-0.70;69.91
69247;BME280;56358;56.328;43.992;2022-11-06T09:07:24;101885.50;;;-0.75;69.79
69247;BME280;56358;56.328;43.992;2022-11-06T09:09:25;101870.56;;;-0.73;69.94
69247;BME280;56358;56.328;43.992;2022-11-06T09:11:31;101786.72;;;-1.19;70.01
69247;BME280;56358;56.328;43.992;2022-11-06T09:13:32;101872.25;;;-0.67;70.15
69247;BME280;56358;56.328;43.992;2022-11-06T09:15:33;101791.97;;;-1.19;70.27
69247;BME280;56358;56.328;43.992;2022-11-06T09:17:40;101873.16;;;-0.66;70.50
69247;BME280;56358;56.328;43.992;2022-11-06T09:19:40;101867.81;;;-0.57;69.93
69247;BME280;56358;56.328;43.992;2022-11-06T09:21:41;101867.81;;;-0.59;69.87
69247;BME280;56358;56.328;43.992;2022-11-06T09:23:42;101868.66;;;-0.55;69.80
69247;BME280;56358;56.328;43.992;2022-11-06T09:25:43;101865.25;;;-0.66;70.01
69247;BME280;56358;56.328;43.992;2022-11-06T09:27:47;101858.28;;;-0.72;70.37
69247;BME280;56358;56.328;43.992;2022-11-06T09:29:48;101870.47;;;-0.63;70.16
69247;BME280;56358;56.328;43.992;2022-11-06T09:31:48;101863.56;;;-0.72;69.84
69247;BME280;56358;56.328;43.992;2022-11-06T09:33:49;101854.78;;;-0.74;69.94
69247;BME280;56358;56.328;43.992;2022-11-06T09:35:50;101853.97;;;-0.82;69.91
69247;BME280;56358;56.328;43.992;2022-11-06T09:37:52;101848.81;;;-0.95;70.17
69247;BME280;56358;56.328;43.992;2022-11-06T09:39:52;101858.38;;;-0.85;70.27
69247;BME280;56358;56.328;43.992;2022-11-06T09:42:20;101860.16;;;-0.88;70.44
69247;BME280;56358;56.328;43.992;2022-11-06T09:44:39;101857.53;;;-0.87;70.24
69247;BME280;56358;56.328;43.992;2022-11-06T09:46:44;101853.13;;;-0.88;69.70
69247;BME280;56358;56.328;43.992;2022-11-06T09:48:51;101865.41;;;-0.87;69.74
69247;BME280;56358;56.328;43.992;2022-11-06T09:53:31;101689.97;;;-2.01;69.83
69247;BME280;56358;56.328;43.992;2022-11-06T09:55:38;101849.72;;;-1.02;70.41
69247;BME280;56358;56.328;43.992;2022-11-06T09:58:01;101855.81;;;-0.95;70.31
69247;BME280;56358;56.328;43.992;2022-11-06T10:00:06;101868.97;;;-0.94;70.05
69247;BME280;56358;56.328;43.992;2022-11-06T10:04:48;101799.09;;;-1.32;69.99
69247;BME280;56358;56.328;43.992;2022-11-06T10:06:52;101847.16;;;-1.08;69.86
69247;BME280;56358;56.328;43.992;2022-11-06T10:08:57;101860.25;;;-0.99;69.98
69247;BME280;56358;56.328;43.992;2022-11-06T10:15:33;101854.03;;;-0.92;69.90
69247;BME280;56358;56.328;43.992;2022-11-06T10:20:18;101831.38;;;-1.08;70.23
69247;BME280;56358;56.328;43.992;2022-11-06T10:22:30;101850.56;;;-0.95;70.47
69247;BME280;56358;56.328;43.992;2022-11-06T10:24:52;101848.75;;;-0.90;70.72
69247;BME280;56358;56.328;43.992;2022-11-06T10:27:02;101846.19;;;-0.95;69.94
69247;BME280;56358;56.328;43.992;2022-11-06T10:29:45;101853.19;;;-0.95;69.92
69247;BME280;56358;56.328;43.992;2022-11-06T10:34:15;101838.31;;;-0.96;70.14
69247;BME280;56358;56.328;43.992;2022-11-06T10:36:22;101835.66;;;-0.96;70.33
69247;BME280;56358;56.328;43.992;2022-11-06T10:38:29;101837.38;;;-0.95;70.52
69247;BME280;56358;56.328;43.992;2022-11-06T10:40:32;101844.38;;;-0.91;70.55
69247;BME280;56358;56.328;43.992;2022-11-06T10:42:36;101871.56;;;-0.88;70.40
69247;BME280;56358;56.328;43.992;2022-11-06T10:44:41;101818.97;;;-0.97;70.33
69247;BME280;56358;56.328;43.992;2022-11-06T10:46:53;101811.06;;;-0.95;70.49
69247;BME280;56358;56.328;43.992;2022-11-06T10:49:00;101830.31;;;-0.86;70.45
69247;BME280;56358;56.328;43.992;2022-11-06T10:53:30;101827.69;;;-0.86;70.55
69247;BME280;56358;56.328;43.992;2022-11-06T10:58:22;101826.75;;;-0.80;70.35
69247;BME280;56358;56.328;43.992;2022-11-06T11:00:26;101794.38;;;-0.93;70.11
69247;BME280;56358;56.328;43.992;2022-11-06T11:02:30;101805.72;;;-0.83;69.79
69247;BME280;56358;56.328;43.992;2022-11-06T11:04:34;101826.66;;;-0.74;70.14
69247;BME280;56358;56.328;43.992;2022-11-06T11:06:38;101817.97;;;-0.79;70.01
69247;BME280;56358;56.328;43.992;2022-11-06T11:08:43;101830.16;;;-0.72;69.88
69247;BME280;56358;56.328;43.992;2022-11-06T11:10:44;101822.44;;;-0.90;69.98
69247;BME280;56358;56.328;43.992;2022-11-06T11:12:45;101846.06;;;-0.81;70.32
69247;BME280;56358;56.328;43.992;2022-11-06T11:17:07;101823.22;;;-0.79;69.88
69247;BME280;56358;56.328;43.992;2022-11-06T11:21:33;101822.41;;;-0.89;69.76
69247;BME280;56358;56.328;43.992;2022-11-06T11:23:34;101755.25;;;-1.35;69.87
69247;BME280;56358;56.328;43.992;2022-11-06T11:25:35;101823.31;;;-0.91;70.03
69247;BME280;56358;56.328;43.992;2022-11-06T11:27:40;101814.66;;;-1.07;69.80
69247;BME280;56358;56.328;43.992;2022-11-06T11:29:45;101667.16;;;-1.93;70.12
69247;BME280;56358;56.328;43.992;2022-11-06T11:31:52;101773.66;;;-1.30;69.96
69247;BME280;56358;56.328;43.992;2022-11-06T11:33:57;101824.38;;;-1.11;70.35
69247;BME280;56358;56.328;43.992;2022-11-06T11:35:59;101825.13;;;-0.99;70.56
69247;BME280;56358;56.328;43.992;2022-11-06T11:38:12;101822.50;;;-0.98;70.46
69247;BME280;56358;56.328;43.992;2022-11-06T11:40:35;101829.50;;;-0.95;70.28